sensor_id;sensor_type;location;lat;lon;timestamp;P1;durP1;ratioP1;P2;durP2;ratioP2
20535;SDS011;10426;49.420;8.390;2023-02-01T00:01:22;2.63;;;2.38;;
20535;SDS011;10426;49.420;8.390;2023-02-01T00:03:49;2.53;;;2.42;;
20535;SDS011;10426;49.420;8.390;2023-02-01T00:06:16;2.83;;;2.63;;
20535;SDS011;10426;49.420;8.390;2023-02-01T00:08:42;2.83;;;2.63;;
20535;SDS011;10426;49.420;8.390;2023-02-01T00:11:10;3.58;;;2.65;;
20535;SDS011;10426;49.420;8.390;2023-02-01T00:13:38;2.88;;;2.67;;
20535;SDS011;10426;49.420;8.390;2023-02-01T00:16:05;3.47;;;2.78;;
20535;SDS011;10426;49.420;8.390;2023-02-01T00:18:32;3.45;;;3.10;;
20535;SDS011;10426;49.420;8.390;2023-02-01T00:20:59;3.15;;;2.95;;
20535;SDS011;10426;49.420;8.390;2023-02-01T00:23:26;3.05;;;2.72;;
20535;SDS011;10426;49.420;8.390;2023-02-01T00:25:52;2.95;;;2.75;;
20535;SDS011;10426;49.420;8.390;2023-02-01T00:28:20;2.92;;;2.70;;
20535;SDS011;10426;49.420;8.390;2023-02-01T00:30:54;3.20;;;3.00;;
20535;SDS011;10426;49.420;8.390;2023-02-01T00:33:21;3.65;;;3.28;;
20535;SDS011;10426;49.420;8.390;2023-02-01T00:35:48;3.03;;;2.83;;
20535;SDS011;10426;49.420;8.390;2023-02-01T00:38:14;3.08;;;2.88;;
20535;SDS011;10426;49.420;8.390;2023-02-01T00:40:41;2.95;;;2.75;;
20535;SDS011;10426;49.420;8.390;2023-02-01T00:43:07;3.30;;;3.00;;
20535;SDS011;10426;49.420;8.390;2023-02-01T00:45:36;3.97;;;3.08;;
20535;SDS011;10426;49.420;8.390;2023-02-01T00:48:03;2.90;;;2.70;;
20535;SDS011;10426;49.420;8.390;2023-02-01T00:50:29;3.20;;;2.80;;
20535;SDS011;10426;49.420;8.390;2023-02-01T00:52:56;3.10;;;2.90;;
20535;SDS011;10426;49.420;8.390;2023-02-01T00:55:22;3.20;;;3.00;;
20535;SDS011;10426;49.420;8.390;2023-02-01T00:57:49;3.10;;;2.90;;
20535;SDS011;10426;49.420;8.390;2023-02-01T01:00:17;3.15;;;2.70;;
20535;SDS011;10426;49.420;8.390;2023-02-01T01:02:45;3.08;;;2.88;;
20535;SDS011;10426;49.420;8.390;2023-02-01T01:05:12;3.13;;;2.92;;
20535;SDS011;10426;49.420;8.390;2023-02-01T01:07:38;2.90;;;2.70;;
20535;SDS011;10426;49.420;8.390;2023-02-01T01:10:07;3.00;;;2.80;;
20535;SDS011;10426;49.420;8.390;2023-02-01T01:12:33;3.25;;;3.05;;
20535;SDS011;10426;49.420;8.390;2023-02-01T01:15:00;3.88;;;3.00;;
20535;SDS011;10426;49.420;8.390;2023-02-01T01:17:26;3.00;;;2.80;;
20535;SDS011;10426;49.420;8.390;2023-02-01T01:19:54;3.22;;;2.92;;
20535;SDS011;10426;49.420;8.390;2023-02-01T01:22:21;3.17;;;2.73;;
20535;SDS011;10426;49.420;8.390;2023-02-01T01:24:47;3.28;;;2.70;;
20535;SDS011;10426;49.420;8.390;2023-02-01T01:27:14;2.90;;;2.70;;
20535;SDS011;10426;49.420;8.390;2023-02-01T01:29:41;3.13;;;2.90;;
20535;SDS011;10426;49.420;8.390;2023-02-01T01:32:07;2.92;;;2.72;;
20535;SDS011;10426;49.420;8.390;2023-02-01T01:34:34;3.33;;;3.03;;
20535;SDS011;10426;49.420;8.390;2023-02-01T01:37:02;3.65;;;3.00;;
20535;SDS011;10426;49.420;8.390;2023-02-01T01:39:29;3.10;;;2.90;;
20535;SDS011;10426;49.420;8.390;2023-02-01T01:41:55;3.15;;;2.70;;
20535;SDS011;10426;49.420;8.390;2023-02-01T01:47:07;2.97;;;2.78;;
20535;SDS011;10426;49.420;8.390;2023-02-01T01:49:35;3.20;;;2.90;;
20535;SDS011;10426;49.420;8.390;2023-02-01T01:52:05;5.28;;;3.88;;
20535;SDS011;10426;49.420;8.390;2023-02-01T01:54:32;12.43;;;6.78;;
20535;SDS011;10426;49.420;8.390;2023-02-01T01:57:00;6.83;;;4.47;;
20535;SDS011;10426;49.420;8.390;2023-02-01T01:59:27;3.50;;;3.10;;
20535;SDS011;10426;49.420;8.390;2023-02-01T02:01:55;3.03;;;2.83;;
20535;SDS011;10426;49.420;8.390;2023-02-01T02:04:21;2.90;;;2.70;;
20535;SDS011;10426;49.420;8.390;2023-02-01T02:06:50;2.85;;;2.65;;
20535;SDS011;10426;49.420;8.390;2023-02-01T02:09:19;3.00;;;2.70;;
20535;SDS011;10426;49.420;8.390;2023-02-01T02:11:46;3.35;;;2.63;;
20535;SDS011;10426;49.420;8.390;2023-02-01T02:14:13;2.88;;;2.67;;
20535;SDS011;10426;49.420;8.390;2023-02-01T02:16:50;3.08;;;2.80;;
20535;SDS011;10426;49.420;8.390;2023-02-01T02:22:13;2.88;;;2.67;;
20535;SDS011;10426;49.420;8.390;2023-02-01T02:24:57;3.03;;;2.72;;
20535;SDS011;10426;49.420;8.390;2023-02-01T02:27:30;2.90;;;2.70;;
20535;SDS011;10426;49.420;8.390;2023-02-01T02:30:13;3.10;;;2.90;;
20535;SDS011;10426;49.420;8.390;2023-02-01T02:32:54;2.90;;;2.70;;
20535;SDS011;10426;49.420;8.390;2023-02-01T02:35:27;2.92;;;2.70;;
20535;SDS011;10426;49.420;8.390;2023-02-01T02:37:58;3.08;;;2.85;;
20535;SDS011;10426;49.420;8.390;2023-02-01T02:40:28;3.28;;;2.90;;
20535;SDS011;10426;49.420;8.390;2023-02-01T02:42:58;3.20;;;3.00;;
20535;SDS011;10426;49.420;8.390;2023-02-01T02:45:44;3.60;;;3.33;;
20535;SDS011;10426;49.420;8.390;2023-02-01T02:48:34;3.22;;;2.92;;
20535;SDS011;10426;49.420;8.390;2023-02-01T02:51:05;3.40;;;3.10;;
20535;SDS011;10426;49.420;8.390;2023-02-01T02:53:52;3.30;;;3.00;;
20535;SDS011;10426;49.420;8.390;2023-02-01T02:56:37;3.60;;;3.30;;
20535;SDS011;10426;49.420;8.390;2023-02-01T02:59:23;3.55;;;3.25;;
20535;SDS011;10426;49.420;8.390;2023-02-01T03:02:08;3.83;;;3.42;;
20535;SDS011;10426;49.420;8.390;2023-02-01T03:04:53;3.30;;;3.00;;
20535;SDS011;10426;49.420;8.390;2023-02-01T03:10:09;3.40;;;3.10;;
20535;SDS011;10426;49.420;8.390;2023-02-01T03:12:37;3.75;;;3.40;;
20535;SDS011;10426;49.420;8.390;2023-02-01T03:15:20;3.53;;;3.22;;
20535;SDS011;10426;49.420;8.390;2023-02-01T03:17:49;3.37;;;3.17;;
20535;SDS011;10426;49.420;8.390;2023-02-01T03:20:16;3.40;;;3.10;;
20535;SDS011;10426;49.420;8.390;2023-02-01T03:22:45;3.95;;;3.35;;
20535;SDS011;10426;49.420;8.390;2023-02-01T03:25:14;3.70;;;3.40;;
20535;SDS011;10426;49.420;8.390;2023-02-01T03:27:43;3.77;;;3.43;;
20535;SDS011;10426;49.420;8.390;2023-02-01T03:30:14;4.72;;;3.60;;
20535;SDS011;10426;49.420;8.390;2023-02-01T03:32:43;4.15;;;3.35;;
20535;SDS011;10426;49.420;8.390;2023-02-01T03:35:26;4.27;;;3.20;;
20535;SDS011;10426;49.420;8.390;2023-02-01T03:37:54;4.68;;;3.70;;
20535;SDS011;10426;49.420;8.390;2023-02-01T03:40:24;4.68;;;3.80;;
20535;SDS011;10426;49.420;8.390;2023-02-01T03:42:52;4.70;;;4.10;;
20535;SDS011;10426;49.420;8.390;2023-02-01T03:45:22;4.38;;;3.80;;
20535;SDS011;10426;49.420;8.390;2023-02-01T03:47:51;4.60;;;3.60;;
20535;SDS011;10426;49.420;8.390;2023-02-01T03:50:20;4.53;;;3.87;;
20535;SDS011;10426;49.420;8.390;2023-02-01T03:52:48;4.90;;;3.50;;
20535;SDS011;10426;49.420;8.390;2023-02-01T03:55:18;3.80;;;3.38;;
20535;SDS011;10426;49.420;8.390;2023-02-01T03:57:48;6.40;;;3.77;;
20535;SDS011;10426;49.420;8.390;2023-02-01T04:00:18;5.93;;;3.72;;
20535;SDS011;10426;49.420;8.390;2023-02-01T04:02:44;4.95;;;3.60;;
20535;SDS011;10426;49.420;8.390;2023-02-01T04:05:11;4.82;;;3.63;;
20535;SDS011;10426;49.420;8.390;2023-02-01T04:07:37;4.03;;;3.60;;
20535;SDS011;10426;49.420;8.390;2023-02-01T04:10:05;4.87;;;3.50;;
20535;SDS011;10426;49.420;8.390;2023-02-01T04:12:31;5.78;;;3.72;;
20535;SDS011;10426;49.420;8.390;2023-02-01T04:14:59;4.20;;;3.58;;
20535;SDS011;10426;49.420;8.390;2023-02-01T04:17:26;3.80;;;3.45;;
20535;SDS011;10426;49.420;8.390;2023-02-01T04:19:53;4.68;;;3.50;;
20535;SDS011;10426;49.420;8.390;2023-02-01T04:22:19;5.53;;;3.70;;
20535;SDS011;10426;49.420;8.390;2023-02-01T04:24:46;4.87;;;3.77;;
20535;SDS011;10426;49.420;8.390;2023-02-01T04:27:12;3.80;;;3.45;;
20535;SDS011;10426;49.420;8.390;2023-02-01T04:29:39;3.80;;;3.40;;
20535;SDS011;10426;49.420;8.390;2023-02-01T04:32:07;5.13;;;3.65;;
20535;SDS011;10426;49.420;8.390;2023-02-01T04:34:34;5.93;;;3.70;;
20535;SDS011;10426;49.420;8.390;2023-02-01T04:37:01;4.10;;;3.38;;
20535;SDS011;10426;49.420;8.390;2023-02-01T04:39:27;3.63;;;3.15;;
20535;SDS011;10426;49.420;8.390;2023-02-01T04:41:54;3.20;;;2.90;;
20535;SDS011;10426;49.420;8.390;2023-02-01T04:44:21;9.40;;;3.15;;
20535;SDS011;10426;49.420;8.390;2023-02-01T04:46:47;3.58;;;3.28;;
20535;SDS011;10426;49.420;8.390;2023-02-01T04:49:16;5.38;;;3.63;;
20535;SDS011;10426;49.420;8.390;2023-02-01T04:51:43;5.57;;;3.15;;
20535;SDS011;10426;49.420;8.390;2023-02-01T04:54:09;3.93;;;3.20;;
20535;SDS011;10426;49.420;8.390;2023-02-01T04:56:37;3.92;;;3.33;;
20535;SDS011;10426;49.420;8.390;2023-02-01T04:59:04;5.03;;;3.45;;
20535;SDS011;10426;49.420;8.390;2023-02-01T05:01:31;5.22;;;3.65;;
20535;SDS011;10426;49.420;8.390;2023-02-01T05:03:58;4.78;;;3.60;;
20535;SDS011;10426;49.420;8.390;2023-02-01T05:06:26;3.95;;;3.35;;
20535;SDS011;10426;49.420;8.390;2023-02-01T05:08:52;4.72;;;3.50;;
20535;SDS011;10426;49.420;8.390;2023-02-01T05:11:19;4.57;;;3.53;;
20535;SDS011;10426;49.420;8.390;2023-02-01T05:14:03;3.45;;;3.15;;
20535;SDS011;10426;49.420;8.390;2023-02-01T05:16:30;5.00;;;3.10;;
20535;SDS011;10426;49.420;8.390;2023-02-01T05:18:56;3.67;;;3.00;;
20535;SDS011;10426;49.420;8.390;2023-02-01T05:21:23;5.80;;;3.30;;
20535;SDS011;10426;49.420;8.390;2023-02-01T05:23:51;3.35;;;3.05;;
20535;SDS011;10426;49.420;8.390;2023-02-01T05:26:36;4.00;;;3.00;;
20535;SDS011;10426;49.420;8.390;2023-02-01T05:29:02;3.97;;;2.97;;
20535;SDS011;10426;49.420;8.390;2023-02-01T05:31:29;3.72;;;3.20;;
20535;SDS011;10426;49.420;8.390;2023-02-01T05:33:56;4.05;;;2.95;;
20535;SDS011;10426;49.420;8.390;2023-02-01T05:36:22;3.10;;;2.73;;
20535;SDS011;10426;49.420;8.390;2023-02-01T05:38:49;2.97;;;2.70;;
20535;SDS011;10426;49.420;8.390;2023-02-01T05:41:17;3.25;;;2.90;;
20535;SDS011;10426;49.420;8.390;2023-02-01T05:43:44;4.10;;;3.28;;
20535;SDS011;10426;49.420;8.390;2023-02-01T05:46:10;3.38;;;3.08;;
20535;SDS011;10426;49.420;8.390;2023-02-01T05:48:38;3.70;;;2.90;;
20535;SDS011;10426;49.420;8.390;2023-02-01T05:51:04;5.43;;;3.50;;
20535;SDS011;10426;49.420;8.390;2023-02-01T05:53:31;3.50;;;3.20;;
20535;SDS011;10426;49.420;8.390;2023-02-01T05:55:58;4.90;;;3.33;;
20535;SDS011;10426;49.420;8.390;2023-02-01T05:58:26;4.00;;;2.80;;
20535;SDS011;10426;49.420;8.390;2023-02-01T06:00:52;3.92;;;3.10;;
20535;SDS011;10426;49.420;8.390;2023-02-01T06:03:19;3.05;;;2.70;;
20535;SDS011;10426;49.420;8.390;2023-02-01T06:05:46;5.40;;;3.17;;
20535;SDS011;10426;49.420;8.390;2023-02-01T06:08:13;5.45;;;2.88;;
20535;SDS011;10426;49.420;8.390;2023-02-01T06:10:39;3.75;;;2.95;;
20535;SDS011;10426;49.420;8.390;2023-02-01T06:13:06;4.03;;;2.90;;
20535;SDS011;10426;49.420;8.390;2023-02-01T06:15:34;3.28;;;2.47;;
20535;SDS011;10426;49.420;8.390;2023-02-01T06:18:00;4.53;;;2.93;;
20535;SDS011;10426;49.420;8.390;2023-02-01T06:20:27;6.30;;;3.20;;
20535;SDS011;10426;49.420;8.390;2023-02-01T06:22:54;4.03;;;3.38;;
20535;SDS011;10426;49.420;8.390;2023-02-01T06:25:20;4.32;;;2.95;;
20535;SDS011;10426;49.420;8.390;2023-02-01T06:27:47;4.82;;;3.20;;
20535;SDS011;10426;49.420;8.390;2023-02-01T06:30:14;5.20;;;3.38;;
20535;SDS011;10426;49.420;8.390;2023-02-01T06:32:41;5.38;;;2.85;;
20535;SDS011;10426;49.420;8.390;2023-02-01T06:35:08;4.93;;;2.97;;
20535;SDS011;10426;49.420;8.390;2023-02-01T06:37:36;4.50;;;3.05;;
20535;SDS011;10426;49.420;8.390;2023-02-01T06:40:03;5.10;;;3.13;;
20535;SDS011;10426;49.420;8.390;2023-02-01T06:42:30;5.77;;;3.70;;
20535;SDS011;10426;49.420;8.390;2023-02-01T06:44:57;6.55;;;3.30;;
20535;SDS011;10426;49.420;8.390;2023-02-01T06:47:23;5.18;;;2.92;;
20535;SDS011;10426;49.420;8.390;2023-02-01T06:49:51;5.43;;;3.10;;
20535;SDS011;10426;49.420;8.390;2023-02-01T06:52:18;6.63;;;3.17;;
20535;SDS011;10426;49.420;8.390;2023-02-01T06:54:44;8.80;;;3.90;;
20535;SDS011;10426;49.420;8.390;2023-02-01T06:57:11;6.45;;;3.15;;
20535;SDS011;10426;49.420;8.390;2023-02-01T06:59:38;8.68;;;3.50;;
20535;SDS011;10426;49.420;8.390;2023-02-01T07:02:04;6.10;;;3.17;;
20535;SDS011;10426;49.420;8.390;2023-02-01T07:04:31;4.88;;;3.17;;
20535;SDS011;10426;49.420;8.390;2023-02-01T07:06:59;3.70;;;2.70;;
20535;SDS011;10426;49.420;8.390;2023-02-01T07:09:25;6.15;;;3.00;;
20535;SDS011;10426;49.420;8.390;2023-02-01T07:11:52;4.45;;;2.95;;
20535;SDS011;10426;49.420;8.390;2023-02-01T07:14:19;5.53;;;2.90;;
20535;SDS011;10426;49.420;8.390;2023-02-01T07:16:45;4.93;;;3.67;;
20535;SDS011;10426;49.420;8.390;2023-02-01T07:19:12;5.90;;;3.65;;
20535;SDS011;10426;49.420;8.390;2023-02-01T07:21:38;5.17;;;3.30;;
20535;SDS011;10426;49.420;8.390;2023-02-01T07:24:07;4.97;;;2.90;;
20535;SDS011;10426;49.420;8.390;2023-02-01T07:26:33;6.65;;;3.13;;
20535;SDS011;10426;49.420;8.390;2023-02-01T07:29:00;5.77;;;2.70;;
20535;SDS011;10426;49.420;8.390;2023-02-01T07:31:26;6.55;;;2.80;;
20535;SDS011;10426;49.420;8.390;2023-02-01T07:33:54;6.70;;;2.88;;
20535;SDS011;10426;49.420;8.390;2023-02-01T07:36:21;7.38;;;3.10;;
20535;SDS011;10426;49.420;8.390;2023-02-01T07:38:48;7.07;;;2.90;;
20535;SDS011;10426;49.420;8.390;2023-02-01T07:41:17;5.72;;;2.90;;
20535;SDS011;10426;49.420;8.390;2023-02-01T07:43:44;5.32;;;2.63;;
20535;SDS011;10426;49.420;8.390;2023-02-01T07:46:11;6.30;;;2.88;;
20535;SDS011;10426;49.420;8.390;2023-02-01T07:48:40;6.05;;;2.83;;
20535;SDS011;10426;49.420;8.390;2023-02-01T07:51:08;6.63;;;3.00;;
20535;SDS011;10426;49.420;8.390;2023-02-01T07:53:35;6.53;;;3.20;;
20535;SDS011;10426;49.420;8.390;2023-02-01T07:56:02;6.03;;;3.35;;
20535;SDS011;10426;49.420;8.390;2023-02-01T07:58:30;7.90;;;3.73;;
20535;SDS011;10426;49.420;8.390;2023-02-01T08:00:57;5.57;;;2.50;;
20535;SDS011;10426;49.420;8.390;2023-02-01T08:03:41;4.88;;;2.60;;
20535;SDS011;10426;49.420;8.390;2023-02-01T08:06:08;6.13;;;2.55;;
20535;SDS011;10426;49.420;8.390;2023-02-01T08:08:34;4.22;;;2.50;;
20535;SDS011;10426;49.420;8.390;2023-02-01T08:11:02;5.03;;;2.73;;
20535;SDS011;10426;49.420;8.390;2023-02-01T08:13:30;4.20;;;2.50;;
20535;SDS011;10426;49.420;8.390;2023-02-01T08:15:57;6.72;;;3.17;;
20535;SDS011;10426;49.420;8.390;2023-02-01T08:18:24;5.85;;;2.70;;
20535;SDS011;10426;49.420;8.390;2023-02-01T08:20:51;8.73;;;3.50;;
20535;SDS011;10426;49.420;8.390;2023-02-01T08:23:17;8.60;;;3.22;;
20535;SDS011;10426;49.420;8.390;2023-02-01T08:25:44;7.50;;;3.13;;
20535;SDS011;10426;49.420;8.390;2023-02-01T08:28:11;9.43;;;3.15;;
20535;SDS011;10426;49.420;8.390;2023-02-01T08:30:40;7.77;;;3.27;;
20535;SDS011;10426;49.420;8.390;2023-02-01T08:33:07;8.40;;;3.53;;
20535;SDS011;10426;49.420;8.390;2023-02-01T08:35:34;10.07;;;3.58;;
20535;SDS011;10426;49.420;8.390;2023-02-01T08:38:01;9.63;;;3.60;;
20535;SDS011;10426;49.420;8.390;2023-02-01T08:40:28;11.77;;;3.97;;
20535;SDS011;10426;49.420;8.390;2023-02-01T08:42:56;9.10;;;3.63;;
20535;SDS011;10426;49.420;8.390;2023-02-01T08:45:23;7.28;;;3.42;;
20535;SDS011;10426;49.420;8.390;2023-02-01T08:47:51;11.20;;;3.60;;
20535;SDS011;10426;49.420;8.390;2023-02-01T08:50:18;11.75;;;3.72;;
20535;SDS011;10426;49.420;8.390;2023-02-01T08:52:45;13.35;;;5.70;;
20535;SDS011;10426;49.420;8.390;2023-02-01T08:55:12;15.02;;;6.20;;
20535;SDS011;10426;49.420;8.390;2023-02-01T08:57:38;10.52;;;4.80;;
20535;SDS011;10426;49.420;8.390;2023-02-01T09:00:06;9.45;;;3.55;;
20535;SDS011;10426;49.420;8.390;2023-02-01T09:02:33;9.60;;;3.20;;
20535;SDS011;10426;49.420;8.390;2023-02-01T09:05:01;8.68;;;3.28;;
20535;SDS011;10426;49.420;8.390;2023-02-01T09:07:28;12.10;;;4.18;;
20535;SDS011;10426;49.420;8.390;2023-02-01T09:09:55;9.13;;;3.77;;
20535;SDS011;10426;49.420;8.390;2023-02-01T09:12:25;11.50;;;3.65;;
20535;SDS011;10426;49.420;8.390;2023-02-01T09:14:52;9.43;;;3.83;;
20535;SDS011;10426;49.420;8.390;2023-02-01T09:17:18;11.30;;;4.63;;
20535;SDS011;10426;49.420;8.390;2023-02-01T09:19:45;13.35;;;5.93;;
20535;SDS011;10426;49.420;8.390;2023-02-01T09:22:13;13.15;;;5.68;;
20535;SDS011;10426;49.420;8.390;2023-02-01T09:24:40;10.40;;;3.55;;
20535;SDS011;10426;49.420;8.390;2023-02-01T09:27:07;10.18;;;3.72;;
20535;SDS011;10426;49.420;8.390;2023-02-01T09:29:34;8.48;;;3.22;;
20535;SDS011;10426;49.420;8.390;2023-02-01T09:32:00;9.13;;;3.42;;
20535;SDS011;10426;49.420;8.390;2023-02-01T09:34:27;8.02;;;3.10;;
20535;SDS011;10426;49.420;8.390;2023-02-01T09:36:54;9.23;;;3.30;;
20535;SDS011;10426;49.420;8.390;2023-02-01T09:39:22;9.90;;;3.20;;
20535;SDS011;10426;49.420;8.390;2023-02-01T09:41:51;10.18;;;3.90;;
20535;SDS011;10426;49.420;8.390;2023-02-01T09:44:30;9.25;;;3.45;;
20535;SDS011;10426;49.420;8.390;2023-02-01T09:46:59;7.38;;;3.22;;
20535;SDS011;10426;49.420;8.390;2023-02-01T09:49:26;9.98;;;3.00;;
20535;SDS011;10426;49.420;8.390;2023-02-01T09:51:54;8.43;;;3.03;;
20535;SDS011;10426;49.420;8.390;2023-02-01T09:54:24;7.97;;;2.90;;
20535;SDS011;10426;49.420;8.390;2023-02-01T09:56:52;9.95;;;3.10;;
20535;SDS011;10426;49.420;8.390;2023-02-01T09:59:26;8.77;;;2.97;;
20535;SDS011;10426;49.420;8.390;2023-02-01T10:01:56;7.82;;;3.30;;
20535;SDS011;10426;49.420;8.390;2023-02-01T10:04:24;8.07;;;3.13;;
20535;SDS011;10426;49.420;8.390;2023-02-01T10:06:54;9.43;;;3.30;;
20535;SDS011;10426;49.420;8.390;2023-02-01T10:09:38;8.73;;;3.30;;
20535;SDS011;10426;49.420;8.390;2023-02-01T10:12:22;9.27;;;3.03;;
20535;SDS011;10426;49.420;8.390;2023-02-01T10:14:57;8.73;;;3.03;;
20535;SDS011;10426;49.420;8.390;2023-02-01T10:17:27;10.88;;;3.15;;
20535;SDS011;10426;49.420;8.390;2023-02-01T10:19:58;12.75;;;3.53;;
20535;SDS011;10426;49.420;8.390;2023-02-01T10:22:30;10.50;;;2.95;;
20535;SDS011;10426;49.420;8.390;2023-02-01T10:25:02;11.02;;;2.90;;
20535;SDS011;10426;49.420;8.390;2023-02-01T10:27:32;8.35;;;2.90;;
20535;SDS011;10426;49.420;8.390;2023-02-01T10:30:01;9.00;;;3.00;;
20535;SDS011;10426;49.420;8.390;2023-02-01T10:32:31;8.38;;;2.85;;
20535;SDS011;10426;49.420;8.390;2023-02-01T10:35:01;10.07;;;2.88;;
20535;SDS011;10426;49.420;8.390;2023-02-01T10:37:28;11.15;;;3.55;;
20535;SDS011;10426;49.420;8.390;2023-02-01T10:39:56;8.32;;;3.17;;
20535;SDS011;10426;49.420;8.390;2023-02-01T10:42:25;12.25;;;3.15;;
20535;SDS011;10426;49.420;8.390;2023-02-01T10:44:52;10.93;;;3.58;;
20535;SDS011;10426;49.420;8.390;2023-02-01T10:47:20;10.93;;;3.33;;
20535;SDS011;10426;49.420;8.390;2023-02-01T10:49:48;10.15;;;3.55;;
20535;SDS011;10426;49.420;8.390;2023-02-01T10:52:17;9.35;;;3.38;;
20535;SDS011;10426;49.420;8.390;2023-02-01T10:54:45;10.98;;;3.10;;
20535;SDS011;10426;49.420;8.390;2023-02-01T10:57:19;10.63;;;3.20;;
20535;SDS011;10426;49.420;8.390;2023-02-01T10:59:47;8.63;;;3.22;;
20535;SDS011;10426;49.420;8.390;2023-02-01T11:02:16;9.30;;;3.50;;
20535;SDS011;10426;49.420;8.390;2023-02-01T11:04:45;9.70;;;3.23;;
20535;SDS011;10426;49.420;8.390;2023-02-01T11:07:23;11.70;;;3.92;;
20535;SDS011;10426;49.420;8.390;2023-02-01T11:09:51;9.98;;;3.97;;
20535;SDS011;10426;49.420;8.390;2023-02-01T11:12:22;9.50;;;3.33;;
20535;SDS011;10426;49.420;8.390;2023-02-01T11:14:50;9.27;;;3.37;;
20535;SDS011;10426;49.420;8.390;2023-02-01T11:17:21;9.48;;;3.45;;
20535;SDS011;10426;49.420;8.390;2023-02-01T11:19:56;9.63;;;3.87;;
20535;SDS011;10426;49.420;8.390;2023-02-01T11:22:23;8.23;;;3.75;;
20535;SDS011;10426;49.420;8.390;2023-02-01T11:24:50;8.30;;;3.42;;
20535;SDS011;10426;49.420;8.390;2023-02-01T11:27:18;9.95;;;2.90;;
20535;SDS011;10426;49.420;8.390;2023-02-01T11:29:47;10.03;;;2.93;;
20535;SDS011;10426;49.420;8.390;2023-02-01T11:32:16;8.88;;;3.03;;
20535;SDS011;10426;49.420;8.390;2023-02-01T11:34:45;10.57;;;3.37;;
20535;SDS011;10426;49.420;8.390;2023-02-01T11:37:14;11.07;;;3.13;;
20535;SDS011;10426;49.420;8.390;2023-02-01T11:39:43;8.45;;;3.10;;
20535;SDS011;10426;49.420;8.390;2023-02-01T11:42:19;11.45;;;3.35;;
20535;SDS011;10426;49.420;8.390;2023-02-01T11:44:46;9.38;;;3.30;;
20535;SDS011;10426;49.420;8.390;2023-02-01T11:47:22;10.75;;;3.42;;
20535;SDS011;10426;49.420;8.390;2023-02-01T11:49:49;11.23;;;3.70;;
20535;SDS011;10426;49.420;8.390;2023-02-01T11:52:18;9.80;;;3.60;;
20535;SDS011;10426;49.420;8.390;2023-02-01T11:54:55;12.50;;;4.17;;
20535;SDS011;10426;49.420;8.390;2023-02-01T11:57:31;12.15;;;3.90;;
20535;SDS011;10426;49.420;8.390;2023-02-01T12:00:05;12.25;;;4.57;;
20535;SDS011;10426;49.420;8.390;2023-02-01T12:02:49;12.77;;;3.75;;
20535;SDS011;10426;49.420;8.390;2023-02-01T12:05:25;10.13;;;3.60;;
20535;SDS011;10426;49.420;8.390;2023-02-01T12:10:41;11.00;;;3.60;;
20535;SDS011;10426;49.420;8.390;2023-02-01T12:13:13;9.65;;;3.15;;
20535;SDS011;10426;49.420;8.390;2023-02-01T12:15:44;10.83;;;4.23;;
20535;SDS011;10426;49.420;8.390;2023-02-01T12:18:24;12.18;;;3.35;;
20535;SDS011;10426;49.420;8.390;2023-02-01T12:21:03;11.93;;;3.30;;
20535;SDS011;10426;49.420;8.390;2023-02-01T12:23:37;8.93;;;3.60;;
20535;SDS011;10426;49.420;8.390;2023-02-01T12:26:12;11.85;;;3.55;;
20535;SDS011;10426;49.420;8.390;2023-02-01T12:29:01;10.83;;;3.40;;
20535;SDS011;10426;49.420;8.390;2023-02-01T12:34:18;8.73;;;3.15;;
20535;SDS011;10426;49.420;8.390;2023-02-01T12:36:50;9.70;;;3.43;;
20535;SDS011;10426;49.420;8.390;2023-02-01T12:39:21;10.00;;;3.42;;
20535;SDS011;10426;49.420;8.390;2023-02-01T12:41:50;9.27;;;3.20;;
20535;SDS011;10426;49.420;8.390;2023-02-01T12:44:25;11.83;;;3.60;;
20535;SDS011;10426;49.420;8.390;2023-02-01T12:46:54;14.60;;;3.30;;
20535;SDS011;10426;49.420;8.390;2023-02-01T12:49:26;11.18;;;3.55;;
20535;SDS011;10426;49.420;8.390;2023-02-01T12:51:55;8.10;;;2.70;;
20535;SDS011;10426;49.420;8.390;2023-02-01T12:54:26;10.65;;;3.03;;
20535;SDS011;10426;49.420;8.390;2023-02-01T12:56:55;11.83;;;3.33;;
20535;SDS011;10426;49.420;8.390;2023-02-01T12:59:24;13.57;;;3.25;;
20535;SDS011;10426;49.420;8.390;2023-02-01T13:01:53;10.05;;;3.40;;
20535;SDS011;10426;49.420;8.390;2023-02-01T13:04:25;10.48;;;3.35;;
20535;SDS011;10426;49.420;8.390;2023-02-01T13:06:53;9.10;;;3.45;;
20535;SDS011;10426;49.420;8.390;2023-02-01T13:09:24;8.60;;;3.15;;
20535;SDS011;10426;49.420;8.390;2023-02-01T13:11:53;9.45;;;3.17;;
20535;SDS011;10426;49.420;8.390;2023-02-01T13:14:25;10.38;;;3.20;;
20535;SDS011;10426;49.420;8.390;2023-02-01T13:16:55;7.85;;;2.90;;
20535;SDS011;10426;49.420;8.390;2023-02-01T13:19:26;8.38;;;3.08;;
20535;SDS011;10426;49.420;8.390;2023-02-01T13:21:55;9.88;;;3.20;;
20535;SDS011;10426;49.420;8.390;2023-02-01T13:24:26;9.35;;;3.00;;
20535;SDS011;10426;49.420;8.390;2023-02-01T13:26:54;10.87;;;3.40;;
20535;SDS011;10426;49.420;8.390;2023-02-01T13:29:21;6.93;;;2.92;;
20535;SDS011;10426;49.420;8.390;2023-02-01T13:31:56;8.57;;;2.55;;
20535;SDS011;10426;49.420;8.390;2023-02-01T13:34:30;8.02;;;2.83;;
20535;SDS011;10426;49.420;8.390;2023-02-01T13:37:02;9.20;;;2.90;;
20535;SDS011;10426;49.420;8.390;2023-02-01T13:39:41;7.43;;;2.53;;
20535;SDS011;10426;49.420;8.390;2023-02-01T13:42:13;8.80;;;2.80;;
20535;SDS011;10426;49.420;8.390;2023-02-01T13:44:42;9.43;;;3.13;;
20535;SDS011;10426;49.420;8.390;2023-02-01T13:47:12;8.07;;;2.78;;
20535;SDS011;10426;49.420;8.390;2023-02-01T13:49:44;10.40;;;2.90;;
20535;SDS011;10426;49.420;8.390;2023-02-01T13:54:47;9.50;;;2.95;;
20535;SDS011;10426;49.420;8.390;2023-02-01T13:57:23;10.20;;;3.10;;
20535;SDS011;10426;49.420;8.390;2023-02-01T14:00:06;10.23;;;3.53;;
20535;SDS011;10426;49.420;8.390;2023-02-01T14:03:01;9.43;;;3.65;;
20535;SDS011;10426;49.420;8.390;2023-02-01T14:08:23;13.07;;;3.70;;
20535;SDS011;10426;49.420;8.390;2023-02-01T14:10:51;11.35;;;4.20;;
20535;SDS011;10426;49.420;8.390;2023-02-01T14:13:23;10.73;;;3.55;;
20535;SDS011;10426;49.420;8.390;2023-02-01T14:21:32;11.57;;;4.03;;
20535;SDS011;10426;49.420;8.390;2023-02-01T14:24:01;9.70;;;2.88;;
20535;SDS011;10426;49.420;8.390;2023-02-01T14:26:40;12.00;;;3.92;;
20535;SDS011;10426;49.420;8.390;2023-02-01T14:29:14;9.82;;;3.17;;
20535;SDS011;10426;49.420;8.390;2023-02-01T14:31:46;8.23;;;2.75;;
20535;SDS011;10426;49.420;8.390;2023-02-01T14:34:18;9.03;;;3.17;;
20535;SDS011;10426;49.420;8.390;2023-02-01T14:36:48;9.80;;;3.53;;
20535;SDS011;10426;49.420;8.390;2023-02-01T14:42:03;8.48;;;3.20;;
20535;SDS011;10426;49.420;8.390;2023-02-01T14:44:33;8.10;;;3.20;;
20535;SDS011;10426;49.420;8.390;2023-02-01T14:47:05;9.93;;;3.60;;
20535;SDS011;10426;49.420;8.390;2023-02-01T14:49:32;8.07;;;3.25;;
20535;SDS011;10426;49.420;8.390;2023-02-01T14:51:59;6.32;;;2.45;;
20535;SDS011;10426;49.420;8.390;2023-02-01T14:54:28;10.15;;;3.58;;
20535;SDS011;10426;49.420;8.390;2023-02-01T14:56:55;10.02;;;3.20;;
20535;SDS011;10426;49.420;8.390;2023-02-01T14:59:23;7.07;;;3.10;;
20535;SDS011;10426;49.420;8.390;2023-02-01T15:01:53;9.95;;;3.47;;
20535;SDS011;10426;49.420;8.390;2023-02-01T15:04:20;6.68;;;2.55;;
20535;SDS011;10426;49.420;8.390;2023-02-01T15:06:48;9.15;;;2.80;;
20535;SDS011;10426;49.420;8.390;2023-02-01T15:09:17;7.95;;;2.90;;
20535;SDS011;10426;49.420;8.390;2023-02-01T15:11:57;6.05;;;2.30;;
20535;SDS011;10426;49.420;8.390;2023-02-01T15:14:26;8.80;;;2.60;;
20535;SDS011;10426;49.420;8.390;2023-02-01T15:16:53;6.90;;;2.90;;
20535;SDS011;10426;49.420;8.390;2023-02-01T15:19:20;8.00;;;2.58;;
20535;SDS011;10426;49.420;8.390;2023-02-01T15:21:48;9.27;;;2.80;;
20535;SDS011;10426;49.420;8.390;2023-02-01T15:24:19;9.32;;;3.10;;
20535;SDS011;10426;49.420;8.390;2023-02-01T15:26:46;8.95;;;3.30;;